Yokota Air Base
RJTY : now visible

Airfield :











YOU CAN JOIN US ON...

 
LOGIN :

Register | Disclaimer

   EN    FR    IT 

 









Legend :    VFR   Marginal VFR   IFR   Intensive IFR   Very Intensive IFR
Visi :
Ceiling :
>= 8 km
>= 3000ft
5 to 8 km
1000 to 3000 ft
1500m to 5 km
500 to 1000 ft
800 to 1500m
200 to 500 ft
< 800m
< 200 ft
Symbols :   Thunderstorms  Fog  Heavy snow  Heavy precipitations  Wind > 20 kt






- Airport Elevation : 463 ft
- IATA code : OKO


RJTY - Yokota Air Base

CURRENT METAR :
  • 280255Z AUTO 36006KT 7SM FEW010 SCT021 BKN048 23/20 A2962 RMK AO2 SLP031 60001 T02270196 57015 $

EXPIRED METARs :
  • 280240Z AUTO 01006KT 6SM HZ SCT010 BKN055 23/20 A2962 RMK AO2 SLP031 $
  • 280210Z AUTO 02003KT 7SM OVC009 22/20 A2964 RMK AO2 SLP038 $
  • 280155Z AUTO 01003KT 7SM OVC010 22/19 A2964 RMK AO2 RAE0058DZB0058E08 SLP038 P0000 T02200193 $
  • 280119Z AUTO 00000KT 6SM HZ OVC010 22/19 A2964 RMK AO2 RAE0058DZB0058E08 CIG 010V012 SLP038 $
  • 280055Z AUTO 00000KT 8SM -RA OVC014 22/19 A2965 RMK AO2 RAE08DZB08E11RAB16 SLP041 P0001 T02150185 $
  • 280044Z AUTO 00000KT 8SM -RA BKN015 22/19 A2966 RMK AO2 RAE08DZB08E11RAB16 BKN V SCT SLP044 $
  • 280029Z AUTO 00000KT 8SM -RA FEW010 SCT017 SCT140 21/18 A2965 RMK AO2 RAE08DZB08E11RAB16 SLP041 $
  • 280016Z AUTO 00000KT 10SM -RA SCT019 21/18 A2966 RMK AO2 RAE08DZB08E11RAB16 SLP045 $
  • 272355Z AUTO 00000KT 7SM -RA SCT020 22/18 A2967 RMK AO2 DZB2255E05DZB14E15RAB24E27DZB27E28RAB28E34DZB34E44RAB44 SLP048 P0001 60001 70001 T02150179 10216 20199 50006 $
  • 272339Z AUTO 00000KT 10SM -DZ BKN020 21/18 A2967 RMK AO2 DZB2255E05DZB14E15RAB24E27DZB27E28RAB28E34DZB34 SLP048 $
  • 272324Z AUTO 01003KT 10SM -RA FEW021 21/18 A2967 RMK AO2 DZB2255E05DZB14E15RAB24 SLP048 $
  • 272315Z AUTO 02006KT 10SM FEW021 21/17 A2966 RMK AO2 DZB2255E05DZB14E15 SLP045 $
  • 272314Z AUTO 02005KT 10SM -DZ CLR 21/17 A2966 RMK AO2 DZB2255E05DZB14 SLP045 $
  • 272305Z AUTO 01004KT 10SM CLR 21/17 A2966 RMK AO2 DZB2255E05 SLP044 $
  • 272235Z AUTO 00000KT 10SM SCT020 21/17 A2969 RMK AO2 RAB07E33DZB33E35 PRESRR SLP055 $

TAF TAF RJTY
Valid from the 27 at 21:00 until the 29 at 03:00 UTC


2721/2903 33006KT 9000 -SHRA BKN015 OVC100 520302 QNH2959INS
TEMPO 2722/2801 VRB12G18KT 8000 -TSRA BKN010CB
BECMG 2806/2807 18012G18KT 9999 NSW BKN010 OVC020 530406 QNH2954INS
BECMG 2808/2809 18015G25KT 8000 -RA BKN010 OVC100 520003 530306 QNH2929INS
TEMPO 2811/2815 18035G45KT 6000 -TSRA BR OVC010CB 530003
BECMG 2818/2819 33012G18KT 9999 NSW FEW015 SCT060 520304 QNH2941INS
TEMPO 2819/2822 9000 -SHRA
BECMG 2822/2823 33015G25KT 9999 FEW060 520003 QNH2957INS TX26/2804Z TN19/2821Z
RJJJ FIR / Asia



MET'MAP, your aeronautical weather chart ! - Copyright ORBIFLY December 2007 - Disclaimer

ORBIFLY MET'MAP TEAM :

Programming & Development : Alexandra Zaïnal
Original concept : Baudouin d'Aumeries
Technical & hardware support : Manuel Goepfert
Assistance : Marc-Olivier Méhu




SOURCES & CREDITS :

   NOAA       Earth
Advisory